createdAt,value
2024-03-23T00:01:21.240Z,98776.98
2024-03-23T00:03:52.448Z,98775.14
2024-03-23T00:06:21.647Z,98774.48
2024-03-23T00:08:50.753Z,98768.05
2024-03-23T00:11:22.419Z,98763.57
2024-03-23T00:13:49.148Z,98762.34
2024-03-23T00:16:25.945Z,98755.73
2024-03-23T00:18:54.942Z,98752.79
2024-03-23T00:21:24.364Z,98746.72
2024-03-23T00:23:51.377Z,98737.77
2024-03-23T00:26:18.871Z,98733.05
2024-03-23T00:28:45.695Z,98733.56
2024-03-23T00:31:17.228Z,98731.09
2024-03-23T00:33:47.236Z,98729.23
2024-03-23T00:36:16.284Z,98726.89
2024-03-23T00:38:43.013Z,98728.65
2024-03-23T00:41:12.883Z,98726.32
2024-03-23T00:43:40.402Z,98723.26
2024-03-23T00:46:07.691Z,98712.05
2024-03-23T00:48:35.178Z,98703.31
2024-03-23T00:51:02.599Z,98699.13
2024-03-23T00:53:29.761Z,98694.81
2024-03-23T00:55:56.984Z,98698.19
2024-03-23T00:58:23.976Z,98698.02
2024-03-23T01:00:51.028Z,98691.21
2024-03-23T01:03:18.556Z,98688.94
2024-03-23T01:05:45.619Z,98684.55
2024-03-23T01:08:12.264Z,98684.06
2024-03-23T01:38:34.188Z,98656.27
2024-03-23T01:41:03.467Z,98662.66
2024-03-23T01:43:32.304Z,98659.00
2024-03-23T01:46:01.773Z,98651.34
2024-03-23T01:48:29.969Z,98644.42
2024-03-23T01:51:00.022Z,98638.40
2024-03-23T01:53:31.154Z,98634.27
2024-03-23T01:56:02.034Z,98631.23
2024-03-23T01:58:29.862Z,98631.97
2024-03-23T02:00:59.189Z,98625.19
2024-03-23T02:03:30.388Z,98621.08
2024-03-23T02:05:59.360Z,98613.67
2024-03-23T02:08:30.567Z,98605.78
2024-03-23T02:11:03.336Z,98604.23
2024-03-23T02:13:32.912Z,98600.98
2024-03-23T02:16:00.979Z,98598.27
2024-03-23T02:18:28.738Z,98593.08
2024-03-23T02:20:58.985Z,98586.39
2024-03-23T02:23:27.284Z,98584.41
2024-03-23T02:25:55.291Z,98587.73
2024-03-23T02:28:23.706Z,98582.98
2024-03-23T02:30:53.772Z,98584.27
2024-03-23T02:33:21.944Z,98580.88
2024-03-23T02:35:50.711Z,98574.41
2024-03-23T02:38:20.787Z,98564.05
2024-03-23T02:40:51.251Z,98552.72
2024-03-23T02:43:21.631Z,98549.02
2024-03-23T02:45:55.413Z,98553.71
2024-03-23T02:48:23.280Z,98552.20
2024-03-23T02:50:51.988Z,98545.41
2024-03-23T02:53:20.089Z,98544.52
2024-03-23T02:55:48.133Z,98538.33
2024-03-23T02:58:16.287Z,98542.60
2024-03-23T03:00:44.072Z,98540.16
2024-03-23T03:03:12.167Z,98537.98
2024-03-23T03:05:41.319Z,98531.83
2024-03-23T03:08:09.795Z,98521.99
2024-03-23T03:10:38.946Z,98515.41
2024-03-23T03:13:07.447Z,98518.92
2024-03-23T03:15:35.728Z,98514.58
2024-03-23T03:18:06.005Z,98506.24
2024-03-23T03:20:33.913Z,98504.77
2024-03-23T03:23:02.176Z,98502.52
2024-03-23T03:25:30.352Z,98495.10
2024-03-23T03:27:58.212Z,98486.40
2024-03-23T03:30:27.129Z,98473.75
2024-03-23T03:32:56.233Z,98472.77
2024-03-23T03:35:26.621Z,98476.77
2024-03-23T03:37:54.708Z,98469.91
2024-03-23T03:40:22.962Z,98468.89
2024-03-23T03:42:53.616Z,98466.30
2024-03-23T03:45:21.691Z,98462.55
2024-03-23T03:47:54.673Z,98458.93
2024-03-23T03:50:23.451Z,98454.79
2024-03-23T03:52:53.991Z,98450.31
2024-03-23T03:55:24.931Z,98444.59
2024-03-23T03:57:53.011Z,98445.67
2024-03-23T04:00:21.089Z,98443.35
2024-03-23T04:02:49.229Z,98442.98
2024-03-23T04:05:21.011Z,98442.47
2024-03-23T04:07:51.002Z,98444.35
2024-03-23T04:10:19.409Z,98441.55
2024-03-23T04:12:48.489Z,98436.67
2024-03-23T04:15:16.538Z,98441.23
2024-03-23T04:17:44.404Z,98443.16
2024-03-23T04:20:14.657Z,98437.23
2024-03-23T04:22:47.095Z,98436.27
2024-03-23T04:25:20.619Z,98437.69
2024-03-23T04:27:50.568Z,98432.42
2024-03-23T04:30:18.982Z,98422.70
2024-03-23T04:32:47.051Z,98418.67
2024-03-23T04:35:15.090Z,98417.39
2024-03-23T04:37:42.985Z,98420.06
2024-03-23T04:40:12.344Z,98419.16
2024-03-23T04:42:40.268Z,98416.76
2024-03-23T04:45:08.485Z,98408.17
2024-03-23T04:47:41.671Z,98400.20
2024-03-23T04:50:11.685Z,98389.86
2024-03-23T04:52:39.446Z,98390.77
2024-03-23T04:55:07.917Z,98390.29
2024-03-23T04:57:38.190Z,98393.71
2024-03-23T05:00:18.311Z,98393.98
2024-03-23T05:02:48.445Z,98382.70
2024-03-23T05:05:16.214Z,98375.23
2024-03-23T05:07:47.626Z,98369.11
2024-03-23T05:10:15.779Z,98368.14
2024-03-23T05:12:48.228Z,98373.70
2024-03-23T05:15:18.628Z,98370.66
2024-03-23T05:17:46.460Z,98370.98
2024-03-23T05:20:21.604Z,98370.16
2024-03-23T05:22:50.547Z,98365.36
2024-03-23T05:25:19.469Z,98366.19
2024-03-23T05:27:47.474Z,98367.52
2024-03-23T05:30:20.214Z,98369.35
2024-03-23T05:32:52.142Z,98361.61
2024-03-23T05:35:20.256Z,98350.40
2024-03-23T05:37:52.670Z,98344.61
2024-03-23T05:40:20.780Z,98350.06
2024-03-23T05:42:48.730Z,98354.95
2024-03-23T05:45:19.651Z,98353.77
2024-03-23T05:47:51.879Z,98353.76
2024-03-23T05:50:19.679Z,98357.19
2024-03-23T05:52:47.825Z,98360.13
2024-03-23T05:55:17.827Z,98362.38
2024-03-23T05:57:46.280Z,98363.93
2024-03-23T06:00:18.916Z,98356.34
2024-03-23T06:02:46.702Z,98346.86
2024-03-23T06:05:15.051Z,98350.00
2024-03-23T06:07:43.060Z,98345.17
2024-03-23T06:10:11.412Z,98346.58
2024-03-23T06:12:39.414Z,98345.42
2024-03-23T06:15:19.845Z,98343.86
2024-03-23T06:17:51.025Z,98341.95
2024-03-23T06:20:21.510Z,98336.09
2024-03-23T06:22:49.894Z,98333.35
2024-03-23T06:25:17.869Z,98322.02
2024-03-23T06:27:46.509Z,98309.29
2024-03-23T06:30:14.700Z,98304.67
2024-03-23T06:32:42.811Z,98301.23
2024-03-23T06:35:10.700Z,98294.83
2024-03-23T06:37:39.987Z,98289.73
2024-03-23T06:40:12.028Z,98287.00
2024-03-23T06:42:40.142Z,98286.34
2024-03-23T06:45:09.108Z,98283.55
2024-03-23T07:13:55.816Z,98255.06
2024-03-23T07:16:24.534Z,98248.48
2024-03-23T07:50:16.438Z,98213.14
2024-03-23T07:52:44.898Z,98207.35
2024-03-23T07:55:12.948Z,98200.33
2024-03-23T07:57:41.139Z,98195.63
2024-03-23T08:00:09.774Z,98191.46
2024-03-23T08:02:41.833Z,98189.74
2024-03-23T08:05:10.106Z,98186.73
2024-03-23T08:07:37.978Z,98188.15
2024-03-23T08:10:08.239Z,98186.80
2024-03-23T08:12:39.480Z,98186.97
2024-03-23T08:15:12.852Z,98187.16
2024-03-23T08:17:41.662Z,98181.89
2024-03-23T08:20:10.685Z,98170.55
2024-03-23T08:22:43.568Z,98175.71
2024-03-23T08:25:12.404Z,98170.11
2024-03-23T08:43:47.155Z,98142.06
2024-03-23T08:46:30.205Z,98132.70
2024-03-23T08:53:37.471Z,98120.63
2024-03-23T09:05:20.628Z,98096.45
2024-03-23T09:08:37.782Z,98088.23
2024-03-23T09:11:41.527Z,98076.30
2024-03-23T09:14:17.943Z,98069.19
2024-03-23T09:28:29.944Z,98046.01
2024-03-23T09:31:15.193Z,98044.98
2024-03-23T09:36:44.871Z,98038.29
2024-03-23T09:39:28.577Z,98037.27
2024-03-23T10:03:50.161Z,98033.22
2024-03-23T10:06:28.059Z,98026.73
2024-03-23T10:08:56.323Z,98017.08
2024-03-23T10:11:28.282Z,98014.89
2024-03-23T10:13:59.097Z,98012.09
2024-03-23T10:16:28.686Z,98012.05
2024-03-23T10:18:56.592Z,98006.84
2024-03-23T10:21:24.676Z,98005.73
2024-03-23T10:23:52.568Z,97997.22
2024-03-23T10:26:28.392Z,97994.77
2024-03-23T10:29:08.997Z,97998.23
2024-03-23T10:31:39.362Z,98002.58
2024-03-23T10:34:10.279Z,98001.08
2024-03-23T10:36:58.347Z,97990.98
2024-03-23T10:39:28.776Z,97997.52
2024-03-23T10:42:29.591Z,97992.11
2024-03-23T10:45:11.929Z,97987.13
2024-03-23T10:48:15.936Z,97976.38
2024-03-23T10:50:47.105Z,97973.39
2024-03-23T10:53:16.825Z,97971.66
2024-03-23T10:55:47.401Z,97959.15
2024-03-23T10:58:40.222Z,97956.59
2024-03-23T11:01:17.388Z,97947.04
2024-03-23T11:03:49.965Z,97949.20
2024-03-23T11:06:42.621Z,97948.85
2024-03-23T11:09:38.735Z,97951.20
2024-03-23T11:12:45.049Z,97949.59
2024-03-23T11:15:13.547Z,97948.58
2024-03-23T11:18:13.262Z,97943.30
2024-03-23T11:20:41.421Z,97948.27
2024-03-23T11:23:30.670Z,97940.13
2024-03-23T11:25:58.821Z,97935.87
2024-03-23T11:29:12.547Z,97927.88
2024-03-23T11:32:58.425Z,97919.14
2024-03-23T11:41:02.541Z,97908.15
2024-03-23T11:48:07.076Z,97893.52
2024-03-23T11:50:42.582Z,97883.75
2024-03-23T11:53:15.098Z,97882.68
2024-03-23T11:56:04.456Z,97886.15
2024-03-23T11:58:33.882Z,97877.34
2024-03-23T12:01:04.459Z,97873.35
2024-03-23T12:03:34.442Z,97870.39
2024-03-23T12:06:08.629Z,97864.67
2024-03-23T12:08:44.470Z,97847.08
2024-03-23T12:11:17.578Z,97837.73
2024-03-23T12:14:07.977Z,97820.27
2024-03-23T12:16:35.728Z,97819.08
2024-03-23T12:19:07.108Z,97816.61
2024-03-23T12:21:35.349Z,97823.11
2024-03-23T12:24:05.695Z,97824.15
2024-03-23T12:26:58.247Z,97816.68
2024-03-23T12:30:15.699Z,97805.99
2024-03-23T12:32:44.130Z,97804.52
2024-03-23T12:35:13.320Z,97802.70
2024-03-23T12:37:41.318Z,97805.20
2024-03-23T12:40:09.693Z,97795.31
2024-03-23T12:58:00.909Z,97762.13
2024-03-23T13:00:29.509Z,97755.89
2024-03-23T13:03:02.604Z,97750.85
2024-03-23T13:05:34.534Z,97742.58
2024-03-23T13:08:02.406Z,97740.17
2024-03-23T15:03:07.693Z,97757.79
2024-03-23T15:05:34.718Z,97771.20
2024-03-23T15:08:03.267Z,97767.90
2024-03-23T15:10:36.384Z,97743.70
2024-03-23T15:13:05.984Z,97749.46
2024-03-23T15:15:44.137Z,97744.89
2024-03-23T15:18:25.758Z,97737.27
2024-03-23T15:20:56.069Z,97742.66
2024-03-23T15:23:23.393Z,97738.84
2024-03-23T15:25:59.109Z,97740.11
2024-03-23T15:28:49.988Z,97739.91
2024-03-23T15:31:18.005Z,97756.69
2024-03-23T15:33:45.229Z,97769.77
2024-03-23T15:36:12.568Z,97778.36
2024-03-23T15:38:41.035Z,97780.14
2024-03-23T15:41:08.897Z,97782.05
2024-03-23T15:43:36.587Z,97783.98
2024-03-23T15:46:15.583Z,97787.62
2024-03-23T15:48:47.575Z,97783.47
2024-03-23T15:51:15.013Z,97773.94
2024-03-23T15:53:43.038Z,97779.59
2024-03-23T15:56:13.330Z,97788.65
2024-03-23T15:58:41.496Z,97795.08
2024-03-23T16:01:11.155Z,97800.45
2024-03-23T16:03:38.671Z,97799.40
2024-03-23T16:06:08.241Z,97807.09
2024-03-23T16:08:37.903Z,97822.52
2024-03-23T16:11:12.086Z,97835.89
2024-03-23T16:13:40.297Z,97829.73
2024-03-23T16:16:08.022Z,97828.58
2024-03-23T16:18:40.595Z,97823.83
2024-03-23T16:21:08.460Z,97828.45
2024-03-23T16:23:41.513Z,97828.84
2024-03-23T16:26:10.967Z,97827.95
2024-03-23T16:28:38.554Z,97825.21
2024-03-23T16:31:12.199Z,97825.06
2024-03-23T16:33:53.730Z,97836.29
2024-03-23T16:36:26.200Z,97838.05
2024-03-23T16:38:53.369Z,97846.50
2024-03-23T16:41:20.411Z,97851.09
2024-03-23T16:43:47.252Z,97860.77
2024-03-23T16:46:16.533Z,97873.34
2024-03-23T16:48:48.298Z,97888.46
2024-03-23T16:51:15.212Z,97901.24
2024-03-23T16:53:41.959Z,97913.27
2024-03-23T16:56:09.857Z,97926.52
2024-03-23T16:58:41.523Z,97949.41
2024-03-23T17:01:20.515Z,97967.20
2024-03-23T17:03:54.025Z,97981.40
2024-03-23T17:06:23.480Z,98001.45
2024-03-23T17:08:50.652Z,98016.20
2024-03-23T17:11:19.571Z,98041.78
2024-03-23T17:13:54.369Z,98059.17
2024-03-23T17:16:21.337Z,98076.73
2024-03-23T17:18:50.404Z,98085.85
2024-03-23T17:55:21.816Z,98240.12
2024-03-23T17:57:48.707Z,98243.45
2024-03-23T18:00:16.990Z,98247.17
2024-03-23T18:02:43.884Z,98260.88
2024-03-23T18:05:16.911Z,98269.66
2024-03-23T18:07:44.158Z,98276.88
2024-03-23T18:10:11.018Z,98286.02
2024-03-23T18:12:38.028Z,98294.55
2024-03-23T18:15:05.740Z,98300.69
2024-03-23T18:17:37.399Z,98304.95
2024-03-23T18:20:06.529Z,98305.98
2024-03-23T18:22:33.396Z,98319.52
2024-03-23T18:25:00.194Z,98335.48
2024-03-23T18:27:26.875Z,98348.30
2024-03-23T18:29:55.244Z,98353.23
2024-03-23T18:32:32.461Z,98365.80
2024-03-23T18:34:59.513Z,98371.91
2024-03-23T18:37:28.796Z,98376.45
2024-03-23T18:39:55.833Z,98386.65
2024-03-23T18:42:22.820Z,98387.78
2024-03-23T18:44:56.555Z,98383.87
2024-03-23T18:47:23.463Z,98386.54
2024-03-23T18:49:51.079Z,98391.46
2024-03-23T18:52:22.865Z,98398.31
2024-03-23T18:54:50.134Z,98403.46
2024-03-23T18:57:16.914Z,98417.52
2024-03-23T18:59:46.733Z,98414.79
2024-03-23T19:02:13.494Z,98414.78
2024-03-23T19:04:40.587Z,98413.41
2024-03-23T19:07:07.590Z,98418.09
2024-03-23T19:09:37.618Z,98422.33
2024-03-23T19:12:08.454Z,98428.30
2024-03-23T19:14:41.522Z,98428.42
2024-03-23T19:17:08.589Z,98424.69
2024-03-23T19:19:35.284Z,98414.22
2024-03-23T19:22:04.546Z,98409.46
2024-03-23T19:24:31.391Z,98417.98
2024-03-23T19:26:58.571Z,98418.63
2024-03-23T19:29:25.524Z,98419.30
2024-03-23T19:31:52.431Z,98421.36
2024-03-23T19:34:19.839Z,98422.06
2024-03-23T20:20:15.051Z,98452.13
2024-03-23T20:22:42.262Z,98449.15
2024-03-23T20:25:10.001Z,98450.30
2024-03-23T20:27:37.937Z,98438.97
2024-03-23T20:30:07.620Z,98428.05
2024-03-23T20:32:37.932Z,98429.73
2024-03-23T20:35:06.955Z,98436.84
2024-03-23T20:37:39.151Z,98446.02
2024-03-23T20:40:08.650Z,98448.23
2024-03-23T20:42:36.144Z,98444.97
2024-03-23T20:45:03.709Z,98434.23
2024-03-23T20:47:30.704Z,98434.23
2024-03-23T20:49:57.688Z,98437.86
2024-03-23T20:52:24.375Z,98444.16
2024-03-23T20:54:51.372Z,98455.30
2024-03-23T20:57:18.317Z,98456.66
2024-03-23T20:59:48.177Z,98449.25
2024-03-23T21:02:14.721Z,98439.04
2024-03-23T21:04:41.258Z,98427.73
2024-03-23T21:07:08.170Z,98419.08
2024-03-23T21:09:35.714Z,98425.04
2024-03-23T21:12:07.092Z,98426.42
2024-03-23T21:14:34.980Z,98429.79
2024-03-23T21:17:02.829Z,98432.63
2024-03-23T21:19:29.946Z,98431.70
2024-03-23T21:21:56.951Z,98436.10
2024-03-23T21:24:26.090Z,98437.00
2024-03-23T21:26:53.555Z,98438.45
2024-03-23T21:29:21.914Z,98441.08
2024-03-23T21:31:51.323Z,98439.88
2024-03-23T21:34:18.609Z,98443.92
2024-03-23T21:36:45.832Z,98444.92
2024-03-23T21:39:16.752Z,98440.33
2024-03-23T21:41:48.034Z,98433.93
2024-03-23T21:44:15.251Z,98437.73
2024-03-23T21:46:42.299Z,98442.13
2024-03-23T21:49:11.936Z,98439.82
2024-03-23T21:51:38.943Z,98442.08
2024-03-23T21:54:06.079Z,98437.98
2024-03-23T21:56:33.064Z,98440.67
2024-03-23T21:59:00.416Z,98443.34
2024-03-23T22:01:27.504Z,98434.71
2024-03-23T22:03:54.419Z,98435.10
2024-03-23T22:06:21.551Z,98433.92
2024-03-23T22:08:48.921Z,98427.84
2024-03-23T22:11:15.966Z,98423.11
2024-03-23T22:13:43.065Z,98432.86
2024-03-23T22:16:12.042Z,98434.30
2024-03-23T22:18:39.063Z,98431.06
2024-03-23T22:21:05.990Z,98432.50
2024-03-23T22:23:33.152Z,98433.10
2024-03-23T22:26:01.940Z,98422.90
2024-03-23T22:28:29.186Z,98423.59
2024-03-23T22:31:00.753Z,98428.81
2024-03-23T22:33:28.484Z,98432.24
2024-03-23T22:35:56.657Z,98430.20
2024-03-23T22:38:24.336Z,98434.55
2024-03-23T22:41:04.574Z,98435.02
2024-03-23T22:43:33.194Z,98437.02
2024-03-23T22:46:05.300Z,98430.19
2024-03-23T22:48:34.379Z,98431.14
2024-03-23T22:51:04.148Z,98432.10
2024-03-23T22:53:34.909Z,98423.04
2024-03-23T22:56:04.929Z,98414.01
2024-03-23T22:58:31.889Z,98407.19
2024-03-23T23:00:59.255Z,98407.16
2024-03-23T23:03:30.989Z,98405.86
2024-03-23T23:06:06.576Z,98410.59
2024-03-23T23:08:37.465Z,98414.39
2024-03-23T23:11:05.230Z,98418.04
2024-03-23T23:13:32.535Z,98424.91
2024-03-23T23:15:59.742Z,98434.90
2024-03-23T23:18:26.798Z,98429.18
2024-03-23T23:20:54.673Z,98428.27
2024-03-23T23:23:24.140Z,98430.33
2024-03-23T23:25:53.745Z,98432.20
2024-03-23T23:28:20.914Z,98438.30
2024-03-23T23:30:58.738Z,98434.64
2024-03-23T23:33:25.972Z,98430.16
2024-03-23T23:35:53.026Z,98435.17
2024-03-23T23:38:20.474Z,98438.45
2024-03-23T23:40:47.933Z,98448.34
2024-03-23T23:43:15.195Z,98452.83
2024-03-23T23:45:43.058Z,98445.56
2024-03-23T23:48:12.044Z,98441.13
2024-03-23T23:50:41.104Z,98433.35
2024-03-23T23:53:10.699Z,98430.14
2024-03-23T23:55:38.219Z,98424.12
2024-03-23T23:58:05.756Z,98410.02
